Time;durP1;ratioP1;P1;durP2;ratioP2;P2;SDS_P1;SDS_P2;PMS_P1;PMS_P2;Temp;Humidity;BMP_temperature;BMP_pressure;BME280_temperature;BME280_humidity;BME280_pressure;Samples;Min_cycle;Max_cycle;Signal;HPM_P1;HPM_P2
2022/04/20 00:03:22;;;;;;;2.25;0.90;;;;;;;;;;20947840;28;20055;-81
2022/04/20 00:13:24;;;;;;;1.13;0.80;;;;;;;;;;20995346;28;20048;-81
2022/04/20 00:23:26;;;;;;;0.77;0.65;;;;;;;;;;20990689;28;20048;-82
2022/04/20 00:33:27;;;;;;;0.93;0.90;;;;;;;;;;20999373;28;20056;-81
2022/04/20 00:43:29;;;;;;;0.77;0.73;;;;;;;;;;20995561;28;20054;-81
2022/04/20 00:53:31;;;;;;;0.77;0.73;;;;;;;;;;20965129;28;20487;-81
2022/04/20 01:03:33;;;;;;;0.68;0.68;;;;;;;;;;20965860;28;20094;-81
2022/04/20 01:13:55;;;;;;;0.73;0.70;;;;;;;;;;20938473;28;20048;-82
2022/04/20 01:24:17;;;;;;;0.60;0.60;;;;;;;;;;20933923;28;20554;-81
2022/04/20 01:34:38;;;;;;;1.73;0.60;;;;;;;;;;20947740;28;20040;-80
2022/04/20 01:44:39;;;;;;;0.70;0.70;;;;;;;;;;20948336;28;20119;-80
2022/04/20 01:54:47;;;;;;;1.13;0.70;;;;;;;;;;20933083;28;20083;-80
2022/04/20 02:05:07;;;;;;;1.00;0.90;;;;;;;;;;20946737;28;20524;-81
2022/04/20 02:15:10;;;;;;;1.10;0.80;;;;;;;;;;20946033;28;20041;-81
2022/04/20 02:25:32;;;;;;;1.00;0.80;;;;;;;;;;20928835;28;20082;-81
2022/04/20 02:35:35;;;;;;;1.10;0.77;;;;;;;;;;20955020;28;20049;-81
2022/04/20 02:45:41;;;;;;;0.93;0.80;;;;;;;;;;20989945;28;20060;-81
2022/04/20 02:55:43;;;;;;;1.30;0.98;;;;;;;;;;20926333;28;20052;-81
2022/04/20 03:05:45;;;;;;;1.00;0.90;;;;;;;;;;20918818;28;20058;-81
2022/04/20 03:15:47;;;;;;;0.68;0.68;;;;;;;;;;20931071;28;20075;-80
2022/04/20 03:25:49;;;;;;;0.85;0.80;;;;;;;;;;20969435;28;20552;-81
2022/04/20 03:36:13;;;;;;;1.25;0.80;;;;;;;;;;20969165;28;20044;-81
2022/04/20 03:46:15;;;;;;;1.52;0.90;;;;;;;;;;20969137;28;20492;-81
2022/04/20 03:56:16;;;;;;;0.73;0.70;;;;;;;;;;20984227;28;20072;-81
2022/04/20 04:06:18;;;;;;;0.68;0.68;;;;;;;;;;20986604;28;20136;-81
2022/04/20 04:16:20;;;;;;;0.75;0.70;;;;;;;;;;20957404;28;20045;-81
2022/04/20 04:26:22;;;;;;;0.90;0.80;;;;;;;;;;20965578;28;20160;-81
2022/04/20 04:36:25;;;;;;;1.85;0.80;;;;;;;;;;20982065;28;20482;-81
2022/04/20 04:56:58;;;;;;;0.93;0.73;;;;;;;;;;20980847;28;20040;-80
2022/04/20 05:07:03;;;;;;;0.85;0.75;;;;;;;;;;20996595;28;20508;-80
2022/04/20 05:17:13;;;;;;;1.23;1.00;;;;;;;;;;20945031;28;20514;-81
2022/04/20 05:27:15;;;;;;;1.08;0.60;;;;;;;;;;20923992;28;20095;-80
2022/04/20 05:47:47;;;;;;;1.40;0.90;;;;;;;;;;20922636;28;20054;-81
2022/04/20 05:57:48;;;;;;;1.08;0.90;;;;;;;;;;20942707;28;20044;-81
2022/04/20 06:07:52;;;;;;;0.88;0.80;;;;;;;;;;20973109;28;20079;-81
2022/04/20 06:18:20;;;;;;;1.10;0.70;;;;;;;;;;20968675;28;20061;-81
2022/04/20 06:28:47;;;;;;;0.65;0.63;;;;;;;;;;20973863;28;20051;-81
2022/04/20 06:39:14;;;;;;;0.75;0.65;;;;;;;;;;20985732;28;20052;-80
2022/04/20 06:49:35;;;;;;;1.13;0.80;;;;;;;;;;20991628;28;20071;-81
2022/04/20 06:59:37;;;;;;;1.17;0.80;;;;;;;;;;20989738;28;20496;-81
2022/04/20 07:10:10;;;;;;;1.58;0.70;;;;;;;;;;20884456;28;20136;-80
2022/04/20 07:20:27;;;;;;;1.08;0.90;;;;;;;;;;20968635;28;20505;-80
2022/04/20 07:30:47;;;;;;;1.00;0.75;;;;;;;;;;20970156;28;20060;-79
2022/04/20 07:41:12;;;;;;;0.75;0.68;;;;;;;;;;20949603;28;20049;-80
2022/04/20 07:51:34;;;;;;;1.35;0.68;;;;;;;;;;20942937;28;20079;-80
2022/04/20 08:01:54;;;;;;;1.38;0.90;;;;;;;;;;21003482;28;20036;-79
2022/04/20 08:12:14;;;;;;;2.97;1.00;;;;;;;;;;20987766;28;20044;-80
2022/04/20 08:22:16;;;;;;;1.55;0.75;;;;;;;;;;20983811;28;20045;-79
2022/04/20 08:32:19;;;;;;;2.72;0.80;;;;;;;;;;21000770;28;20044;-79
2022/04/20 08:42:21;;;;;;;0.88;0.70;;;;;;;;;;21000213;28;20058;-79
2022/04/20 08:52:39;;;;;;;1.95;1.05;;;;;;;;;;20999530;28;20037;-79
2022/04/20 09:02:44;;;;;;;2.22;0.90;;;;;;;;;;20997335;28;20049;-79
2022/04/20 09:12:46;;;;;;;2.30;0.82;;;;;;;;;;20997824;28;20051;-79
2022/04/20 09:23:07;;;;;;;0.65;0.63;;;;;;;;;;20997329;28;20465;-79
2022/04/20 09:33:19;;;;;;;0.70;0.70;;;;;;;;;;20996436;28;20045;-79
2022/04/20 09:43:21;;;;;;;1.08;0.80;;;;;;;;;;20995605;28;20052;-79
2022/04/20 09:53:31;;;;;;;0.80;0.80;;;;;;;;;;20994834;28;20098;-79
2022/04/20 10:03:33;;;;;;;1.00;0.70;;;;;;;;;;20994166;28;20045;-80
2022/04/20 10:13:36;;;;;;;1.90;0.95;;;;;;;;;;20974736;28;20131;-79
2022/04/20 10:23:45;;;;;;;1.27;0.80;;;;;;;;;;20974837;28;20059;-79
2022/04/20 10:33:48;;;;;;;1.95;0.60;;;;;;;;;;20991642;28;20058;-80
2022/04/20 10:44:14;;;;;;;;;;;;;;;;;;20991088;28;20049;-79
2022/04/20 10:54:23;;;;;;;1.10;0.57;;;;;;;;;;20963464;28;19928;-79
2022/04/20 11:04:41;;;;;;;0.70;0.60;;;;;;;;;;20971853;28;20108;-80
2022/04/20 11:25:11;;;;;;;0.68;0.63;;;;;;;;;;20970145;28;20080;-80
2022/04/20 11:35:15;;;;;;;0.82;0.70;;;;;;;;;;20968895;28;20048;-81
2022/04/20 11:45:32;;;;;;;0.52;0.50;;;;;;;;;;20988017;28;20402;-81
2022/04/20 11:55:43;;;;;;;0.73;0.70;;;;;;;;;;20987437;28;20544;-81
2022/04/20 12:05:57;;;;;;;1.30;0.60;;;;;;;;;;20986926;28;20052;-81
2022/04/20 12:16:03;;;;;;;1.45;0.85;;;;;;;;;;20986468;28;20055;-80
2022/04/20 12:26:05;;;;;;;;;;;;;;;;;;20969251;28;20055;-81
2022/04/20 12:36:11;;;;;;;0.55;0.50;;;;;;;;;;20972146;28;20457;-81
2022/04/20 12:46:35;;;;;;;1.23;0.85;;;;;;;;;;20958337;28;20483;-80
2022/04/20 13:07:04;;;;;;;1.02;0.80;;;;;;;;;;20994384;28;20505;-81
2022/04/20 13:17:09;;;;;;;0.90;0.80;;;;;;;;;;20994155;28;20074;-80
2022/04/20 13:37:32;;;;;;;0.98;0.70;;;;;;;;;;20991931;28;20063;-80
2022/04/20 13:47:34;;;;;;;1.52;0.98;;;;;;;;;;20984649;28;20041;-80
2022/04/20 13:57:37;;;;;;;1.00;0.60;;;;;;;;;;20985441;28;20050;-80
2022/04/20 14:07:39;;;;;;;0.80;0.73;;;;;;;;;;20968112;28;20048;-79
2022/04/20 14:17:43;;;;;;;1.23;0.95;;;;;;;;;;20987628;28;20029;-79
2022/04/20 14:38:08;;;;;;;1.70;1.02;;;;;;;;;;20991796;28;20068;-82
2022/04/20 14:48:10;;;;;;;2.05;1.20;;;;;;;;;;20990946;28;20056;-81
2022/04/20 14:58:12;;;;;;;1.67;1.13;;;;;;;;;;20981329;28;20076;-81
2022/04/20 15:08:14;;;;;;;2.13;1.25;;;;;;;;;;20971577;28;20140;-82
2022/04/20 15:18:15;;;;;;;1.48;1.30;;;;;;;;;;20971690;28;20105;-82
2022/04/20 15:28:17;;;;;;;2.85;1.00;;;;;;;;;;20988949;28;20061;-82
2022/04/20 15:38:19;;;;;;;1.55;0.85;;;;;;;;;;20970687;28;20490;-82
2022/04/20 15:48:21;;;;;;;1.40;0.95;;;;;;;;;;20970470;28;20056;-83
2022/04/20 16:08:43;;;;;;;1.10;0.80;;;;;;;;;;20987413;28;20370;-82
2022/04/20 16:18:45;;;;;;;0.80;0.80;;;;;;;;;;20984707;28;20041;-82
2022/04/20 16:28:46;;;;;;;1.52;1.05;;;;;;;;;;21001202;28;20080;-82
2022/04/20 16:38:48;;;;;;;1.25;0.90;;;;;;;;;;21000888;28;20170;-82
2022/04/20 16:48:50;;;;;;;1.20;0.80;;;;;;;;;;20982670;28;20493;-81
2022/04/20 16:58:52;;;;;;;2.25;0.90;;;;;;;;;;20981246;28;20049;-83
2022/04/20 17:08:54;;;;;;;1.00;0.90;;;;;;;;;;20964705;28;20131;-83
2022/04/20 17:18:56;;;;;;;2.22;1.23;;;;;;;;;;20980160;28;20057;-82
2022/04/20 17:28:57;;;;;;;1.55;1.20;;;;;;;;;;20995894;28;20056;-82
2022/04/20 17:38:59;;;;;;;2.05;1.27;;;;;;;;;;20996292;28;20177;-83
2022/04/20 17:49:01;;;;;;;1.73;1.20;;;;;;;;;;20988427;28;20055;-81
2022/04/20 17:59:03;;;;;;;1.40;1.20;;;;;;;;;;20969003;28;20045;-83
2022/04/20 18:09:07;;;;;;;2.28;1.17;;;;;;;;;;20993477;28;20044;-82
2022/04/20 18:19:13;;;;;;;1.63;1.23;;;;;;;;;;20986747;28;20041;-82
2022/04/20 18:29:14;;;;;;;1.52;1.27;;;;;;;;;;20960186;28;20051;-80
2022/04/20 18:39:16;;;;;;;1.42;1.20;;;;;;;;;;20965177;28;20037;-82
2022/04/20 18:49:18;;;;;;;2.30;1.50;;;;;;;;;;20950096;28;20045;-81
2022/04/20 18:59:20;;;;;;;2.00;1.27;;;;;;;;;;20966874;28;20050;-82
2022/04/20 19:09:22;;;;;;;2.60;1.50;;;;;;;;;;20965604;28;20047;-81
2022/04/20 19:19:25;;;;;;;2.63;1.33;;;;;;;;;;20936841;28;20052;-82
2022/04/20 19:29:27;;;;;;;1.60;1.27;;;;;;;;;;20945870;28;20056;-81
2022/04/20 19:39:30;;;;;;;2.35;1.60;;;;;;;;;;20943152;28;20553;-81
2022/04/20 19:49:33;;;;;;;2.03;1.55;;;;;;;;;;20960946;28;20051;-81
2022/04/20 19:59:36;;;;;;;1.70;1.08;;;;;;;;;;20965853;28;20044;-82
2022/04/20 20:09:38;;;;;;;1.23;1.00;;;;;;;;;;20966096;28;20486;-82
2022/04/20 20:19:40;;;;;;;3.35;1.40;;;;;;;;;;20973415;28;20036;-82
2022/04/20 20:40:03;;;;;;;1.27;1.15;;;;;;;;;;20997718;28;20401;-82
2022/04/20 21:00:26;;;;;;;1.73;1.20;;;;;;;;;;20953337;28;20494;-81
2022/04/20 21:10:28;;;;;;;1.40;0.98;;;;;;;;;;20973127;28;20072;-82
2022/04/20 21:20:32;;;;;;;1.38;0.90;;;;;;;;;;20977774;28;20082;-81
2022/04/20 21:30:33;;;;;;;1.17;0.90;;;;;;;;;;20952290;28;20078;-82
2022/04/20 21:50:56;;;;;;;2.15;0.90;;;;;;;;;;20996854;28;20060;-82
2022/04/20 22:01:02;;;;;;;1.00;0.85;;;;;;;;;;20977450;28;20040;-81
2022/04/20 22:21:24;;;;;;;1.13;0.88;;;;;;;;;;20968753;28;20504;-82
2022/04/20 22:31:26;;;;;;;0.93;0.80;;;;;;;;;;20952629;28;20059;-82
2022/04/20 22:41:36;;;;;;;1.30;0.85;;;;;;;;;;20946777;28;20541;-82
2022/04/20 22:51:39;;;;;;;0.90;0.77;;;;;;;;;;20990064;28;20040;-82
2022/04/20 23:01:41;;;;;;;1.08;0.90;;;;;;;;;;20993735;28;20250;-82
2022/04/20 23:11:43;;;;;;;0.98;0.88;;;;;;;;;;20975167;28;20056;-82
2022/04/20 23:21:45;;;;;;;0.90;0.90;;;;;;;;;;20975387;28;20043;-82
2022/04/20 23:31:46;;;;;;;1.13;0.88;;;;;;;;;;20974220;28;20506;-83
2022/04/20 23:41:48;;;;;;;1.02;0.80;;;;;;;;;;20975504;28;20047;-83
2022/04/20 23:51:50;;;;;;;0.98;0.88;;;;;;;;;;20958845;28;20037;-83
